sensor_id;sensor_type;location;lat;lon;timestamp;temperature;humidity
10300;DHT22;5195;48.562;9.192;2022-08-21T00:01:13;19.40;55.70
10300;DHT22;5195;48.562;9.192;2022-08-21T00:03:38;19.70;55.20
10300;DHT22;5195;48.562;9.192;2022-08-21T00:06:06;19.70;55.30
10300;DHT22;5195;48.562;9.192;2022-08-21T00:08:32;20.00;54.60
10300;DHT22;5195;48.562;9.192;2022-08-21T00:10:57;20.20;53.90
10300;DHT22;5195;48.562;9.192;2022-08-21T00:13:23;20.50;53.40
10300;DHT22;5195;48.562;9.192;2022-08-21T00:15:49;20.80;52.90
10300;DHT22;5195;48.562;9.192;2022-08-21T00:18:16;20.80;52.90
10300;DHT22;5195;48.562;9.192;2022-08-21T00:20:42;20.50;53.30
10300;DHT22;5195;48.562;9.192;2022-08-21T00:23:07;20.20;54.10
10300;DHT22;5195;48.562;9.192;2022-08-21T00:25:33;19.90;54.70
10300;DHT22;5195;48.562;9.192;2022-08-21T00:27:58;20.00;54.20
10300;DHT22;5195;48.562;9.192;2022-08-21T00:30:25;20.30;53.80
10300;DHT22;5195;48.562;9.192;2022-08-21T00:32:50;20.60;53.70
10300;DHT22;5195;48.562;9.192;2022-08-21T00:35:18;20.60;53.00
10300;DHT22;5195;48.562;9.192;2022-08-21T00:37:42;20.10;54.10
10300;DHT22;5195;48.562;9.192;2022-08-21T00:40:10;20.00;54.00
10300;DHT22;5195;48.562;9.192;2022-08-21T00:42:34;19.70;54.70
10300;DHT22;5195;48.562;9.192;2022-08-21T00:45:01;19.30;55.80
10300;DHT22;5195;48.562;9.192;2022-08-21T00:47:26;19.30;55.80
10300;DHT22;5195;48.562;9.192;2022-08-21T00:49:52;19.20;56.30
10300;DHT22;5195;48.562;9.192;2022-08-21T00:52:19;19.40;55.90
10300;DHT22;5195;48.562;9.192;2022-08-21T00:54:43;19.40;55.90
10300;DHT22;5195;48.562;9.192;2022-08-21T00:57:17;19.30;56.30
10300;DHT22;5195;48.562;9.192;2022-08-21T00:59:38;19.50;55.90
10300;DHT22;5195;48.562;9.192;2022-08-21T01:02:05;19.80;55.30
10300;DHT22;5195;48.562;9.192;2022-08-21T01:04:32;20.00;54.80
10300;DHT22;5195;48.562;9.192;2022-08-21T01:06:57;19.80;55.10
10300;DHT22;5195;48.562;9.192;2022-08-21T01:09:24;19.20;56.50
10300;DHT22;5195;48.562;9.192;2022-08-21T01:11:49;19.20;56.50
10300;DHT22;5195;48.562;9.192;2022-08-21T01:14:17;18.80;57.40
10300;DHT22;5195;48.562;9.192;2022-08-21T01:16:44;18.70;57.80
10300;DHT22;5195;48.562;9.192;2022-08-21T01:19:09;18.60;57.60
10300;DHT22;5195;48.562;9.192;2022-08-21T01:21:34;18.90;57.10
10300;DHT22;5195;48.562;9.192;2022-08-21T01:24:00;18.90;57.00
10300;DHT22;5195;48.562;9.192;2022-08-21T01:26:30;18.90;56.10
10300;DHT22;5195;48.562;9.192;2022-08-21T01:28:59;18.90;56.10
10300;DHT22;5195;48.562;9.192;2022-08-21T01:31:24;19.00;56.60
10300;DHT22;5195;48.562;9.192;2022-08-21T01:33:50;19.30;55.40
10300;DHT22;5195;48.562;9.192;2022-08-21T01:36:15;19.50;54.90
10300;DHT22;5195;48.562;9.192;2022-08-21T01:38:41;19.40;55.20
10300;DHT22;5195;48.562;9.192;2022-08-21T01:41:07;19.40;54.90
10300;DHT22;5195;48.562;9.192;2022-08-21T01:43:33;19.50;54.60
10300;DHT22;5195;48.562;9.192;2022-08-21T01:45:58;19.30;54.90
10300;DHT22;5195;48.562;9.192;2022-08-21T01:48:24;19.30;54.20
10300;DHT22;5195;48.562;9.192;2022-08-21T01:50:49;19.40;54.20
10300;DHT22;5195;48.562;9.192;2022-08-21T01:53:15;19.20;55.40
10300;DHT22;5195;48.562;9.192;2022-08-21T01:55:41;18.80;55.50
10300;DHT22;5195;48.562;9.192;2022-08-21T01:58:06;18.50;56.30
10300;DHT22;5195;48.562;9.192;2022-08-21T02:00:32;18.60;56.50
10300;DHT22;5195;48.562;9.192;2022-08-21T02:02:57;18.90;56.00
10300;DHT22;5195;48.562;9.192;2022-08-21T02:05:23;18.70;56.10
10300;DHT22;5195;48.562;9.192;2022-08-21T02:07:50;18.30;57.50
10300;DHT22;5195;48.562;9.192;2022-08-21T02:10:16;18.20;57.30
10300;DHT22;5195;48.562;9.192;2022-08-21T02:12:40;18.40;57.30
10300;DHT22;5195;48.562;9.192;2022-08-21T02:15:07;18.70;56.60
10300;DHT22;5195;48.562;9.192;2022-08-21T02:17:39;18.60;56.70
10300;DHT22;5195;48.562;9.192;2022-08-21T02:20:02;18.30;57.40
10300;DHT22;5195;48.562;9.192;2022-08-21T02:22:27;18.40;57.10
10300;DHT22;5195;48.562;9.192;2022-08-21T02:24:56;18.40;57.50
10300;DHT22;5195;48.562;9.192;2022-08-21T02:27:23;18.20;58.00
10300;DHT22;5195;48.562;9.192;2022-08-21T02:29:48;18.10;57.60
10300;DHT22;5195;48.562;9.192;2022-08-21T02:32:15;18.10;57.60
10300;DHT22;5195;48.562;9.192;2022-08-21T02:34:40;18.40;57.10
10300;DHT22;5195;48.562;9.192;2022-08-21T02:37:06;18.70;56.50
10300;DHT22;5195;48.562;9.192;2022-08-21T02:39:31;18.50;56.60
10300;DHT22;5195;48.562;9.192;2022-08-21T02:41:57;18.20;57.30
10300;DHT22;5195;48.562;9.192;2022-08-21T02:44:23;18.00;57.90
10300;DHT22;5195;48.562;9.192;2022-08-21T02:46:48;17.80;58.30
10300;DHT22;5195;48.562;9.192;2022-08-21T02:49:14;18.00;58.30
10300;DHT22;5195;48.562;9.192;2022-08-21T02:51:40;18.00;58.30
10300;DHT22;5195;48.562;9.192;2022-08-21T02:54:06;18.50;57.10
10300;DHT22;5195;48.562;9.192;2022-08-21T02:56:33;18.50;57.00
10300;DHT22;5195;48.562;9.192;2022-08-21T02:58:59;18.40;57.10
10300;DHT22;5195;48.562;9.192;2022-08-21T03:01:24;18.10;57.60
10300;DHT22;5195;48.562;9.192;2022-08-21T03:03:55;18.20;57.40
10300;DHT22;5195;48.562;9.192;2022-08-21T03:06:23;18.50;57.00
10300;DHT22;5195;48.562;9.192;2022-08-21T03:08:46;18.70;56.00
10300;DHT22;5195;48.562;9.192;2022-08-21T03:11:12;18.90;55.50
10300;DHT22;5195;48.562;9.192;2022-08-21T03:13:37;19.00;55.10
10300;DHT22;5195;48.562;9.192;2022-08-21T03:16:02;19.10;54.80
10300;DHT22;5195;48.562;9.192;2022-08-21T03:18:29;18.80;55.40
10300;DHT22;5195;48.562;9.192;2022-08-21T03:20:55;18.40;56.30
10300;DHT22;5195;48.562;9.192;2022-08-21T03:23:21;18.50;56.20
10300;DHT22;5195;48.562;9.192;2022-08-21T03:25:47;18.70;55.80
10300;DHT22;5195;48.562;9.192;2022-08-21T03:28:13;18.50;56.00
10300;DHT22;5195;48.562;9.192;2022-08-21T03:30:37;18.20;56.70
10300;DHT22;5195;48.562;9.192;2022-08-21T03:33:03;17.90;57.30
10300;DHT22;5195;48.562;9.192;2022-08-21T03:35:28;17.70;57.90
10300;DHT22;5195;48.562;9.192;2022-08-21T03:37:55;18.10;57.80
10300;DHT22;5195;48.562;9.192;2022-08-21T03:40:24;18.10;57.20
10300;DHT22;5195;48.562;9.192;2022-08-21T03:42:46;18.40;56.60
10300;DHT22;5195;48.562;9.192;2022-08-21T03:45:12;18.50;55.90
10300;DHT22;5195;48.562;9.192;2022-08-21T03:47:37;18.60;55.60
10300;DHT22;5195;48.562;9.192;2022-08-21T03:50:04;18.40;55.80
10300;DHT22;5195;48.562;9.192;2022-08-21T03:52:29;18.40;55.80
10300;DHT22;5195;48.562;9.192;2022-08-21T03:54:55;18.00;56.60
10300;DHT22;5195;48.562;9.192;2022-08-21T03:57:22;18.00;56.50
10300;DHT22;5195;48.562;9.192;2022-08-21T03:59:47;18.20;56.30
10300;DHT22;5195;48.562;9.192;2022-08-21T04:02:13;18.00;56.70
10300;DHT22;5195;48.562;9.192;2022-08-21T04:04:39;17.90;57.30
10300;DHT22;5195;48.562;9.192;2022-08-21T04:07:05;17.90;57.00
10300;DHT22;5195;48.562;9.192;2022-08-21T04:09:30;17.60;57.70
10300;DHT22;5195;48.562;9.192;2022-08-21T04:11:56;17.60;57.80
10300;DHT22;5195;48.562;9.192;2022-08-21T04:14:22;17.60;57.80
10300;DHT22;5195;48.562;9.192;2022-08-21T04:16:48;17.70;57.90
10300;DHT22;5195;48.562;9.192;2022-08-21T04:19:13;17.60;58.00
10300;DHT22;5195;48.562;9.192;2022-08-21T04:21:39;17.40;58.50
10300;DHT22;5195;48.562;9.192;2022-08-21T04:24:05;17.20;59.10
10300;DHT22;5195;48.562;9.192;2022-08-21T04:26:30;17.40;59.30
10300;DHT22;5195;48.562;9.192;2022-08-21T04:28:56;17.40;59.00
10300;DHT22;5195;48.562;9.192;2022-08-21T04:31:21;17.60;58.50
10300;DHT22;5195;48.562;9.192;2022-08-21T04:33:47;17.60;58.60
10300;DHT22;5195;48.562;9.192;2022-08-21T04:36:12;17.40;59.10
10300;DHT22;5195;48.562;9.192;2022-08-21T04:38:38;17.00;60.00
10300;DHT22;5195;48.562;9.192;2022-08-21T04:41:04;17.00;60.00
10300;DHT22;5195;48.562;9.192;2022-08-21T04:43:30;16.90;60.40
10300;DHT22;5195;48.562;9.192;2022-08-21T04:45:55;17.20;60.00
10300;DHT22;5195;48.562;9.192;2022-08-21T04:48:21;17.60;59.10
10300;DHT22;5195;48.562;9.192;2022-08-21T04:56:00;17.10;60.70
10300;DHT22;5195;48.562;9.192;2022-08-21T04:58:23;17.00;60.50
10300;DHT22;5195;48.562;9.192;2022-08-21T05:00:49;17.00;60.90
10300;DHT22;5195;48.562;9.192;2022-08-21T05:03:14;17.30;60.00
10300;DHT22;5195;48.562;9.192;2022-08-21T05:05:40;17.30;59.90
10300;DHT22;5195;48.562;9.192;2022-08-21T05:08:06;17.50;59.00
10300;DHT22;5195;48.562;9.192;2022-08-21T05:10:31;17.50;59.10
10300;DHT22;5195;48.562;9.192;2022-08-21T05:12:57;17.60;59.10
10300;DHT22;5195;48.562;9.192;2022-08-21T05:15:23;17.60;59.10
10300;DHT22;5195;48.562;9.192;2022-08-21T05:17:48;17.40;59.60
10300;DHT22;5195;48.562;9.192;2022-08-21T05:20:14;17.30;60.20
10300;DHT22;5195;48.562;9.192;2022-08-21T05:22:40;17.50;59.70
10300;DHT22;5195;48.562;9.192;2022-08-21T05:25:07;17.40;60.40
10300;DHT22;5195;48.562;9.192;2022-08-21T05:27:32;17.40;60.10
10300;DHT22;5195;48.562;9.192;2022-08-21T05:29:57;17.60;59.70
10300;DHT22;5195;48.562;9.192;2022-08-21T05:32:24;17.50;60.10
10300;DHT22;5195;48.562;9.192;2022-08-21T05:34:49;17.40;60.00
10300;DHT22;5195;48.562;9.192;2022-08-21T05:37:15;17.30;60.40
10300;DHT22;5195;48.562;9.192;2022-08-21T05:39:40;17.60;60.10
10300;DHT22;5195;48.562;9.192;2022-08-21T05:42:06;18.00;59.10
10300;DHT22;5195;48.562;9.192;2022-08-21T05:44:31;18.30;58.40
10300;DHT22;5195;48.562;9.192;2022-08-21T05:47:05;18.50;57.60
10300;DHT22;5195;48.562;9.192;2022-08-21T05:49:29;18.40;58.10
10300;DHT22;5195;48.562;9.192;2022-08-21T05:51:55;18.10;58.90
10300;DHT22;5195;48.562;9.192;2022-08-21T05:54:21;17.70;60.50
10300;DHT22;5195;48.562;9.192;2022-08-21T05:56:47;17.70;60.20
10300;DHT22;5195;48.562;9.192;2022-08-21T05:59:12;18.00;60.00
10300;DHT22;5195;48.562;9.192;2022-08-21T06:01:38;18.00;59.90
10300;DHT22;5195;48.562;9.192;2022-08-21T06:04:03;18.20;59.50
10300;DHT22;5195;48.562;9.192;2022-08-21T06:06:29;18.60;59.00
10300;DHT22;5195;48.562;9.192;2022-08-21T06:08:55;18.80;58.10
10300;DHT22;5195;48.562;9.192;2022-08-21T06:11:20;18.70;58.30
10300;DHT22;5195;48.562;9.192;2022-08-21T06:13:46;18.80;58.40
10300;DHT22;5195;48.562;9.192;2022-08-21T06:16:13;18.70;58.70
10300;DHT22;5195;48.562;9.192;2022-08-21T06:18:37;18.80;58.40
10300;DHT22;5195;48.562;9.192;2022-08-21T06:21:03;19.10;58.40
10300;DHT22;5195;48.562;9.192;2022-08-21T06:23:28;19.00;58.60
10300;DHT22;5195;48.562;9.192;2022-08-21T06:25:54;19.10;58.40
10300;DHT22;5195;48.562;9.192;2022-08-21T06:28:19;19.10;58.70
10300;DHT22;5195;48.562;9.192;2022-08-21T06:30:45;18.90;59.40
10300;DHT22;5195;48.562;9.192;2022-08-21T06:33:10;19.10;59.70
10300;DHT22;5195;48.562;9.192;2022-08-21T06:35:36;19.10;59.50
10300;DHT22;5195;48.562;9.192;2022-08-21T06:38:41;19.40;58.70
10300;DHT22;5195;48.562;9.192;2022-08-21T06:41:07;19.40;59.00
10300;DHT22;5195;48.562;9.192;2022-08-21T06:43:33;19.30;59.60
10300;DHT22;5195;48.562;9.192;2022-08-21T06:45:58;19.50;59.10
10300;DHT22;5195;48.562;9.192;2022-08-21T06:48:24;19.70;59.30
10300;DHT22;5195;48.562;9.192;2022-08-21T06:50:49;20.00;58.00
10300;DHT22;5195;48.562;9.192;2022-08-21T06:53:17;20.10;58.30
10300;DHT22;5195;48.562;9.192;2022-08-21T06:55:41;20.30;57.10
10300;DHT22;5195;48.562;9.192;2022-08-21T06:58:06;20.50;57.50
10300;DHT22;5195;48.562;9.192;2022-08-21T07:00:32;21.20;55.90
10300;DHT22;5195;48.562;9.192;2022-08-21T07:02:59;21.20;55.90
10300;DHT22;5195;48.562;9.192;2022-08-21T07:05:26;21.40;56.10
10300;DHT22;5195;48.562;9.192;2022-08-21T07:07:50;21.60;54.70
10300;DHT22;5195;48.562;9.192;2022-08-21T07:10:17;22.00;54.30
10300;DHT22;5195;48.562;9.192;2022-08-21T07:12:43;22.40;53.70
10300;DHT22;5195;48.562;9.192;2022-08-21T07:15:09;22.40;53.70
10300;DHT22;5195;48.562;9.192;2022-08-21T07:17:35;22.60;52.00
10300;DHT22;5195;48.562;9.192;2022-08-21T07:20:00;22.60;52.70
10300;DHT22;5195;48.562;9.192;2022-08-21T07:22:26;22.50;53.30
10300;DHT22;5195;48.562;9.192;2022-08-21T07:24:53;22.50;53.70
10300;DHT22;5195;48.562;9.192;2022-08-21T07:27:19;22.90;52.20
10300;DHT22;5195;48.562;9.192;2022-08-21T07:29:44;22.80;52.10
10300;DHT22;5195;48.562;9.192;2022-08-21T07:32:12;23.20;51.00
10300;DHT22;5195;48.562;9.192;2022-08-21T07:34:39;23.30;51.50
10300;DHT22;5195;48.562;9.192;2022-08-21T07:37:04;23.30;51.80
10300;DHT22;5195;48.562;9.192;2022-08-21T07:39:30;23.30;52.00
10300;DHT22;5195;48.562;9.192;2022-08-21T07:41:55;23.60;50.50
10300;DHT22;5195;48.562;9.192;2022-08-21T07:44:22;24.30;49.10
10300;DHT22;5195;48.562;9.192;2022-08-21T07:46:49;24.30;49.10
10300;DHT22;5195;48.562;9.192;2022-08-21T07:49:14;24.20;49.90
10300;DHT22;5195;48.562;9.192;2022-08-21T07:51:40;24.50;48.60
10300;DHT22;5195;48.562;9.192;2022-08-21T07:54:05;24.70;49.10
10300;DHT22;5195;48.562;9.192;2022-08-21T07:56:31;25.00;47.80
10300;DHT22;5195;48.562;9.192;2022-08-21T07:58:57;25.30;46.90
10300;DHT22;5195;48.562;9.192;2022-08-21T08:01:22;25.70;45.90
10300;DHT22;5195;48.562;9.192;2022-08-21T08:03:48;25.60;46.90
10300;DHT22;5195;48.562;9.192;2022-08-21T08:06:14;25.60;46.90
10300;DHT22;5195;48.562;9.192;2022-08-21T08:08:40;25.80;44.10
10300;DHT22;5195;48.562;9.192;2022-08-21T08:11:05;25.80;45.50
10300;DHT22;5195;48.562;9.192;2022-08-21T08:13:37;26.10;43.90
10300;DHT22;5195;48.562;9.192;2022-08-21T08:15:57;26.20;44.60
10300;DHT22;5195;48.562;9.192;2022-08-21T08:18:23;26.10;45.60
10300;DHT22;5195;48.562;9.192;2022-08-21T08:20:52;26.10;46.00
10300;DHT22;5195;48.562;9.192;2022-08-21T08:23:17;26.40;44.00
10300;DHT22;5195;48.562;9.192;2022-08-21T08:25:43;26.90;42.40
10300;DHT22;5195;48.562;9.192;2022-08-21T08:28:09;27.00;44.10
10300;DHT22;5195;48.562;9.192;2022-08-21T08:30:34;27.10;41.10
10300;DHT22;5195;48.562;9.192;2022-08-21T08:33:01;27.10;42.40
10300;DHT22;5195;48.562;9.192;2022-08-21T08:35:27;27.30;41.20
10300;DHT22;5195;48.562;9.192;2022-08-21T08:37:52;27.40;42.30
10300;DHT22;5195;48.562;9.192;2022-08-21T08:42:44;27.60;41.80
10300;DHT22;5195;48.562;9.192;2022-08-21T08:45:12;27.70;40.70
10300;DHT22;5195;48.562;9.192;2022-08-21T08:47:37;27.80;41.50
10300;DHT22;5195;48.562;9.192;2022-08-21T08:52:35;27.90;40.00
10300;DHT22;5195;48.562;9.192;2022-08-21T08:55:07;27.70;40.80
10300;DHT22;5195;48.562;9.192;2022-08-21T08:57:31;27.60;41.40
10300;DHT22;5195;48.562;9.192;2022-08-21T08:59:57;27.60;41.90
10300;DHT22;5195;48.562;9.192;2022-08-21T09:02:24;27.60;42.10
10300;DHT22;5195;48.562;9.192;2022-08-21T09:04:50;27.60;42.00
10300;DHT22;5195;48.562;9.192;2022-08-21T09:13:05;28.10;38.90
10300;DHT22;5195;48.562;9.192;2022-08-21T09:18:28;28.80;37.10
10300;DHT22;5195;48.562;9.192;2022-08-21T09:21:14;29.20;38.00
10300;DHT22;5195;48.562;9.192;2022-08-21T09:23:56;29.20;39.20
10300;DHT22;5195;48.562;9.192;2022-08-21T09:28:43;28.80;39.60
10300;DHT22;5195;48.562;9.192;2022-08-21T09:31:11;29.00;36.90
10300;DHT22;5195;48.562;9.192;2022-08-21T09:33:34;29.10;37.90
10300;DHT22;5195;48.562;9.192;2022-08-21T09:35:59;29.20;35.20
10300;DHT22;5195;48.562;9.192;2022-08-21T09:38:36;29.20;36.60
10300;DHT22;5195;48.562;9.192;2022-08-21T09:41:02;29.30;34.90
10300;DHT22;5195;48.562;9.192;2022-08-21T09:43:27;29.30;36.40
10300;DHT22;5195;48.562;9.192;2022-08-21T09:46:20;29.10;37.00
10300;DHT22;5195;48.562;9.192;2022-08-21T09:48:46;29.30;33.90
10300;DHT22;5195;48.562;9.192;2022-08-21T09:51:14;29.30;35.00
10300;DHT22;5195;48.562;9.192;2022-08-21T09:53:37;29.40;32.50
10300;DHT22;5195;48.562;9.192;2022-08-21T09:56:03;29.70;34.20
10300;DHT22;5195;48.562;9.192;2022-08-21T09:58:48;30.00;33.30
10300;DHT22;5195;48.562;9.192;2022-08-21T10:15:20;30.90;31.10
10300;DHT22;5195;48.562;9.192;2022-08-21T10:18:03;30.70;31.10
10300;DHT22;5195;48.562;9.192;2022-08-21T10:20:49;30.70;31.00
10300;DHT22;5195;48.562;9.192;2022-08-21T10:23:34;30.50;30.80
10300;DHT22;5195;48.562;9.192;2022-08-21T10:26:00;30.50;30.80
10300;DHT22;5195;48.562;9.192;2022-08-21T10:28:39;30.60;30.60
10300;DHT22;5195;48.562;9.192;2022-08-21T10:36:44;30.70;31.20
10300;DHT22;5195;48.562;9.192;2022-08-21T10:39:07;30.70;29.80
10300;DHT22;5195;48.562;9.192;2022-08-21T10:44:34;30.30;32.30
10300;DHT22;5195;48.562;9.192;2022-08-21T10:50:02;30.40;32.30
10300;DHT22;5195;48.562;9.192;2022-08-21T10:55:38;30.20;30.80
10300;DHT22;5195;48.562;9.192;2022-08-21T10:58:12;30.50;31.40
10300;DHT22;5195;48.562;9.192;2022-08-21T11:00:51;30.50;32.40
10300;DHT22;5195;48.562;9.192;2022-08-21T11:05:50;30.10;32.80
10300;DHT22;5195;48.562;9.192;2022-08-21T11:08:31;30.00;33.20
10300;DHT22;5195;48.562;9.192;2022-08-21T11:16:10;30.10;30.90
10300;DHT22;5195;48.562;9.192;2022-08-21T11:29:55;30.20;32.90
10300;DHT22;5195;48.562;9.192;2022-08-21T11:35:13;30.40;31.00
10300;DHT22;5195;48.562;9.192;2022-08-21T11:40:41;30.60;29.60
10300;DHT22;5195;48.562;9.192;2022-08-21T11:45:44;31.00;28.40
10300;DHT22;5195;48.562;9.192;2022-08-21T11:50:53;31.00;29.30
10300;DHT22;5195;48.562;9.192;2022-08-21T11:53:33;31.00;30.70
10300;DHT22;5195;48.562;9.192;2022-08-21T11:56:06;31.10;29.40
10300;DHT22;5195;48.562;9.192;2022-08-21T11:58:53;31.20;27.70
10300;DHT22;5195;48.562;9.192;2022-08-21T12:01:16;31.20;28.20
10300;DHT22;5195;48.562;9.192;2022-08-21T12:03:42;30.90;29.10
10300;DHT22;5195;48.562;9.192;2022-08-21T12:06:12;30.80;28.60
10300;DHT22;5195;48.562;9.192;2022-08-21T12:08:36;30.60;29.70
10300;DHT22;5195;48.562;9.192;2022-08-21T12:13:40;30.70;28.50
10300;DHT22;5195;48.562;9.192;2022-08-21T12:16:14;30.60;29.40
10300;DHT22;5195;48.562;9.192;2022-08-21T12:18:38;30.60;28.30
10300;DHT22;5195;48.562;9.192;2022-08-21T12:21:19;30.50;29.70
10300;DHT22;5195;48.562;9.192;2022-08-21T12:23:48;30.20;30.30
10300;DHT22;5195;48.562;9.192;2022-08-21T12:39:54;29.60;32.90
10300;DHT22;5195;48.562;9.192;2022-08-21T12:42:20;29.40;32.60
10300;DHT22;5195;48.562;9.192;2022-08-21T12:44:56;29.40;31.90
10300;DHT22;5195;48.562;9.192;2022-08-21T12:50:16;30.40;29.00
10300;DHT22;5195;48.562;9.192;2022-08-21T12:55:42;30.60;28.50
10300;DHT22;5195;48.562;9.192;2022-08-21T12:58:23;30.50;29.30
10300;DHT22;5195;48.562;9.192;2022-08-21T13:00:56;30.10;29.40
10300;DHT22;5195;48.562;9.192;2022-08-21T13:03:30;30.20;28.30
10300;DHT22;5195;48.562;9.192;2022-08-21T13:06:05;30.00;29.30
10300;DHT22;5195;48.562;9.192;2022-08-21T13:08:41;29.90;30.30
10300;DHT22;5195;48.562;9.192;2022-08-21T13:11:18;29.70;30.90
10300;DHT22;5195;48.562;9.192;2022-08-21T13:13:52;29.90;29.40
10300;DHT22;5195;48.562;9.192;2022-08-21T13:16:28;29.90;29.90
10300;DHT22;5195;48.562;9.192;2022-08-21T13:19:04;29.80;30.00
10300;DHT22;5195;48.562;9.192;2022-08-21T13:21:40;29.90;27.50
10300;DHT22;5195;48.562;9.192;2022-08-21T13:24:17;30.10;29.20
10300;DHT22;5195;48.562;9.192;2022-08-21T13:26:51;30.10;29.20
10300;DHT22;5195;48.562;9.192;2022-08-21T13:29:31;29.90;29.80
10300;DHT22;5195;48.562;9.192;2022-08-21T13:32:05;29.70;29.60
10300;DHT22;5195;48.562;9.192;2022-08-21T13:34:41;29.50;29.40
10300;DHT22;5195;48.562;9.192;2022-08-21T13:37:16;29.60;28.20
10300;DHT22;5195;48.562;9.192;2022-08-21T13:39:52;30.00;27.60
10300;DHT22;5195;48.562;9.192;2022-08-21T13:42:29;29.90;28.50
10300;DHT22;5195;48.562;9.192;2022-08-21T13:45:10;29.70;29.20
10300;DHT22;5195;48.562;9.192;2022-08-21T13:47:40;29.70;28.00
10300;DHT22;5195;48.562;9.192;2022-08-21T13:50:17;30.00;28.10
10300;DHT22;5195;48.562;9.192;2022-08-21T13:53:00;29.80;28.80
10300;DHT22;5195;48.562;9.192;2022-08-21T13:55:42;29.90;27.40
10300;DHT22;5195;48.562;9.192;2022-08-21T13:58:29;30.00;27.00
10300;DHT22;5195;48.562;9.192;2022-08-21T14:01:04;30.00;28.80
10300;DHT22;5195;48.562;9.192;2022-08-21T14:03:44;29.70;29.00
10300;DHT22;5195;48.562;9.192;2022-08-21T14:06:22;29.70;29.00
10300;DHT22;5195;48.562;9.192;2022-08-21T14:08:56;29.40;29.40
10300;DHT22;5195;48.562;9.192;2022-08-21T14:11:32;29.50;28.00
10300;DHT22;5195;48.562;9.192;2022-08-21T14:14:25;29.40;28.60
10300;DHT22;5195;48.562;9.192;2022-08-21T14:17:05;29.00;29.60
10300;DHT22;5195;48.562;9.192;2022-08-21T14:22:44;29.00;28.30
10300;DHT22;5195;48.562;9.192;2022-08-21T14:30:43;29.10;28.80
10300;DHT22;5195;48.562;9.192;2022-08-21T14:33:32;29.10;29.40
10300;DHT22;5195;48.562;9.192;2022-08-21T14:36:04;28.90;29.80
10300;DHT22;5195;48.562;9.192;2022-08-21T14:38:40;28.80;29.80
10300;DHT22;5195;48.562;9.192;2022-08-21T14:41:17;28.60;29.80
10300;DHT22;5195;48.562;9.192;2022-08-21T14:43:52;28.60;29.80
10300;DHT22;5195;48.562;9.192;2022-08-21T14:46:28;28.90;28.90
10300;DHT22;5195;48.562;9.192;2022-08-21T14:49:04;28.90;29.40
10300;DHT22;5195;48.562;9.192;2022-08-21T14:51:41;28.80;29.70
10300;DHT22;5195;48.562;9.192;2022-08-21T14:54:17;29.00;29.20
10300;DHT22;5195;48.562;9.192;2022-08-21T14:56:52;29.00;29.10
10300;DHT22;5195;48.562;9.192;2022-08-21T14:59:29;28.80;29.50
10300;DHT22;5195;48.562;9.192;2022-08-21T15:02:06;28.50;30.70
10300;DHT22;5195;48.562;9.192;2022-08-21T15:04:41;28.50;30.00
10300;DHT22;5195;48.562;9.192;2022-08-21T15:07:17;28.70;28.90
10300;DHT22;5195;48.562;9.192;2022-08-21T15:09:52;28.80;29.40
10300;DHT22;5195;48.562;9.192;2022-08-21T15:12:28;28.90;28.40
10300;DHT22;5195;48.562;9.192;2022-08-21T15:15:07;29.20;27.80
10300;DHT22;5195;48.562;9.192;2022-08-21T15:17:42;29.10;28.60
10300;DHT22;5195;48.562;9.192;2022-08-21T15:20:19;28.80;29.10
10300;DHT22;5195;48.562;9.192;2022-08-21T15:22:55;28.90;28.40
10300;DHT22;5195;48.562;9.192;2022-08-21T15:25:31;28.80;28.90
10300;DHT22;5195;48.562;9.192;2022-08-21T15:28:06;28.90;28.10
10300;DHT22;5195;48.562;9.192;2022-08-21T15:30:43;29.20;27.80
10300;DHT22;5195;48.562;9.192;2022-08-21T15:33:19;29.40;27.90
10300;DHT22;5195;48.562;9.192;2022-08-21T15:35:54;29.50;27.30
10300;DHT22;5195;48.562;9.192;2022-08-21T15:38:30;29.30;28.50
10300;DHT22;5195;48.562;9.192;2022-08-21T15:41:05;28.90;28.50
10300;DHT22;5195;48.562;9.192;2022-08-21T15:43:44;29.00;28.20
10300;DHT22;5195;48.562;9.192;2022-08-21T15:46:18;29.10;28.20
10300;DHT22;5195;48.562;9.192;2022-08-21T15:48:55;29.30;27.90
10300;DHT22;5195;48.562;9.192;2022-08-21T15:51:32;29.40;28.30
10300;DHT22;5195;48.562;9.192;2022-08-21T15:54:07;29.50;27.70
10300;DHT22;5195;48.562;9.192;2022-08-21T15:56:45;29.50;28.10
10300;DHT22;5195;48.562;9.192;2022-08-21T15:59:21;29.20;28.50
10300;DHT22;5195;48.562;9.192;2022-08-21T16:01:56;28.80;29.20
10300;DHT22;5195;48.562;9.192;2022-08-21T16:04:32;28.90;29.60
10300;DHT22;5195;48.562;9.192;2022-08-21T16:07:08;28.70;29.60
10300;DHT22;5195;48.562;9.192;2022-08-21T16:09:43;28.40;29.80
10300;DHT22;5195;48.562;9.192;2022-08-21T16:12:26;28.50;28.40
10300;DHT22;5195;48.562;9.192;2022-08-21T16:14:58;28.70;28.80
10300;DHT22;5195;48.562;9.192;2022-08-21T16:17:35;28.90;28.30
10300;DHT22;5195;48.562;9.192;2022-08-21T16:20:10;28.70;29.10
10300;DHT22;5195;48.562;9.192;2022-08-21T16:22:45;28.80;29.70
10300;DHT22;5195;48.562;9.192;2022-08-21T16:25:21;28.80;28.80
10300;DHT22;5195;48.562;9.192;2022-08-21T16:27:58;29.00;29.10
10300;DHT22;5195;48.562;9.192;2022-08-21T16:30:32;28.70;30.00
10300;DHT22;5195;48.562;9.192;2022-08-21T16:33:09;28.70;29.40
10300;DHT22;5195;48.562;9.192;2022-08-21T16:35:44;28.50;29.80
10300;DHT22;5195;48.562;9.192;2022-08-21T16:38:21;28.50;29.80
10300;DHT22;5195;48.562;9.192;2022-08-21T16:40:57;28.70;29.10
10300;DHT22;5195;48.562;9.192;2022-08-21T16:43:32;28.50;29.70
10300;DHT22;5195;48.562;9.192;2022-08-21T16:46:08;28.20;30.10
10300;DHT22;5195;48.562;9.192;2022-08-21T16:48:43;28.20;29.40
10300;DHT22;5195;48.562;9.192;2022-08-21T16:51:19;28.30;29.50
10300;DHT22;5195;48.562;9.192;2022-08-21T16:53:54;28.20;29.90
10300;DHT22;5195;48.562;9.192;2022-08-21T16:56:30;27.90;30.00
10300;DHT22;5195;48.562;9.192;2022-08-21T16:59:06;27.90;28.90
10300;DHT22;5195;48.562;9.192;2022-08-21T17:01:41;27.80;29.50
10300;DHT22;5195;48.562;9.192;2022-08-21T17:04:17;27.60;30.00
10300;DHT22;5195;48.562;9.192;2022-08-21T17:06:53;27.20;30.70
10300;DHT22;5195;48.562;9.192;2022-08-21T17:09:28;27.10;30.60
10300;DHT22;5195;48.562;9.192;2022-08-21T17:12:04;27.00;30.90
10300;DHT22;5195;48.562;9.192;2022-08-21T17:14:40;26.90;31.20
10300;DHT22;5195;48.562;9.192;2022-08-21T17:17:15;26.80;31.20
10300;DHT22;5195;48.562;9.192;2022-08-21T17:19:51;26.70;31.30
10300;DHT22;5195;48.562;9.192;2022-08-21T17:22:28;26.60;31.50
10300;DHT22;5195;48.562;9.192;2022-08-21T17:25:05;26.50;31.40
10300;DHT22;5195;48.562;9.192;2022-08-21T17:28:01;26.50;31.60
10300;DHT22;5195;48.562;9.192;2022-08-21T17:33:46;27.20;29.60
10300;DHT22;5195;48.562;9.192;2022-08-21T17:36:23;27.10;30.40
10300;DHT22;5195;48.562;9.192;2022-08-21T17:38:57;27.20;29.80
10300;DHT22;5195;48.562;9.192;2022-08-21T17:41:32;27.40;29.60
10300;DHT22;5195;48.562;9.192;2022-08-21T17:44:08;27.30;30.00
10300;DHT22;5195;48.562;9.192;2022-08-21T17:46:43;26.90;30.30
10300;DHT22;5195;48.562;9.192;2022-08-21T17:49:19;26.70;30.70
10300;DHT22;5195;48.562;9.192;2022-08-21T17:51:54;26.80;30.00
10300;DHT22;5195;48.562;9.192;2022-08-21T17:54:30;26.70;30.50